Tillsonburg, Canada
Current Conditions -  °F | °C
As of 7:00 PM on Wednesday 28 Jan 2015 (Local Time) from CYHM Reporting Station
Broken Clouds Broken Clouds  
Wind Chill:   Ceiling: 24000
Heat Index: 16°   Visibility: 15mi
Dew Point:   Wind: 7mph
Humidity: 62%   Direction: 200°SSW
Pressure: 30.28"   Gusts: NA
Location:  42.8°N, 80.15°W
Report Text: CYHM 290000Z 20006KT 15SM BKN240 M09/M15 A3028 RMK CI6 SLP275
Loading
Personal Weather Stations






























Interactive Weather Map New forecast layout! Learn more

10-Day Weather Forecast

Advertisements
Track Severe Weather on mobile